Time;durP1;ratioP1;P1;durP2;ratioP2;P2;SDS_P1;SDS_P2;PMS_P1;PMS_P2;Temp;Humidity;BMP_temperature;BMP_pressure;BME280_temperature;BME280_humidity;BME280_pressure;Samples;Min_cycle;Max_cycle;Signal;HPM_P1;HPM_P2
2022/11/17 00:02:05;;;;;;;205.65;18.85;;;;;8.50;94800.00;;;;8297158;28;20540;-83
2022/11/17 00:06:08;;;;;;;356.13;21.50;;;;;8.50;94792.00;;;;8297116;28;20237;-83
2022/11/17 00:10:47;;;;;;;253.90;17.67;;;;;8.50;94788.00;;;;8296488;28;20611;-82
2022/11/17 00:14:49;;;;;;;533.10;26.95;;;;;8.40;94784.00;;;;8297731;28;20628;-83
2022/11/17 00:23:12;;;;;;;402.90;23.07;;;;;8.40;94780.00;;;;8296098;28;20226;-81
2022/11/17 00:27:51;;;;;;;360.37;20.17;;;;;8.40;94781.00;;;;8297123;28;20222;-83
2022/11/17 00:36:30;;;;;;;463.73;25.20;;;;;8.30;94773.00;;;;8296413;28;20276;-83
2022/11/17 00:40:33;;;;;;;305.87;19.53;;;;;8.40;94771.00;;;;8296767;28;20288;-85
2022/11/17 00:44:37;;;;;;;527.73;26.57;;;;;8.40;94763.00;;;;8296428;28;20218;-86
2022/11/17 00:48:40;;;;;;;317.77;18.57;;;;;8.30;94755.00;;;;8296039;28;20272;-86
2022/11/17 00:53:17;;;;;;;484.50;23.65;;;;;8.30;94764.00;;;;8296475;28;20218;-85
2022/11/17 00:57:20;;;;;;;486.10;23.17;;;;;8.30;94770.00;;;;8295611;28;20658;-83
2022/11/17 01:01:58;;;;;;;452.97;23.97;;;;;8.20;94770.00;;;;8296201;28;20210;-83
2022/11/17 01:06:06;;;;;;;385.67;21.70;;;;;8.20;94783.00;;;;8295976;28;20235;-85
2022/11/17 01:10:40;;;;;;;502.40;25.83;;;;;8.20;94779.00;;;;8295202;28;20283;-85
2022/11/17 01:14:43;;;;;;;489.27;26.10;;;;;8.30;94778.00;;;;8295655;28;20218;-86
2022/11/17 01:18:49;;;;;;;528.67;26.13;;;;;8.30;94778.00;;;;8294762;28;20218;-85
2022/11/17 01:23:24;;;;;;;492.13;24.58;;;;;8.30;94774.00;;;;8294670;28;20256;-86
2022/11/17 01:27:27;;;;;;;431.35;23.13;;;;;8.30;94759.00;;;;8294107;28;20213;-86
2022/11/17 01:31:31;;;;;;;456.50;23.92;;;;;8.30;94762.00;;;;8295788;28;20229;-85
2022/11/17 01:35:36;;;;;;;331.30;20.33;;;;;8.30;94754.00;;;;8293938;28;20331;-86
2022/11/17 01:39:39;;;;;;;283.17;19.05;;;;;8.30;94750.00;;;;8294664;28;20234;-86
2022/11/17 01:44:19;;;;;;;305.27;21.03;;;;;8.20;94741.00;;;;8294911;28;20226;-86
2022/11/17 01:48:22;;;;;;;360.33;20.87;;;;;8.20;94737.00;;;;8293846;28;20225;-83
2022/11/17 01:53:02;;;;;;;524.90;25.87;;;;;8.20;94728.00;;;;8295064;28;20532;-84
2022/11/17 01:57:11;;;;;;;342.60;20.53;;;;;8.30;94715.00;;;;8294810;28;20226;-84
2022/11/17 02:01:54;;;;;;;243.93;18.23;;;;;8.20;94721.00;;;;8294825;28;20237;-85
2022/11/17 02:06:04;;;;;;;231.87;17.37;;;;;8.20;94717.00;;;;8293533;28;20221;-84
2022/11/17 02:10:18;;;;;;;563.27;28.47;;;;;8.20;94725.00;;;;8286878;28;20265;-85
2022/11/17 02:14:21;;;;;;;469.83;24.30;;;;;8.20;94719.00;;;;8293769;28;20222;-84
2022/11/17 02:18:24;;;;;;;565.57;27.97;;;;;8.20;94721.00;;;;8293994;28;20524;-83
2022/11/17 02:22:57;;;;;;;419.83;22.03;;;;;8.20;94723.00;;;;8296613;28;20571;-83
2022/11/17 02:27:35;;;;;;;257.07;18.73;;;;;8.20;94710.00;;;;8300580;28;20633;-86
2022/11/17 02:31:47;;;;;;;362.57;21.83;;;;;8.20;94695.00;;;;8264816;28;20222;-85
2022/11/17 02:35:57;;;;;;;235.30;16.83;;;;;8.20;94695.00;;;;8300225;28;20284;-85
2022/11/17 02:40:07;;;;;;;383.63;21.90;;;;;8.20;94684.00;;;;8300816;28;20739;-86
2022/11/17 02:44:39;;;;;;;495.30;25.80;;;;;8.20;94673.00;;;;8298039;28;20225;-85
2022/11/17 02:49:18;;;;;;;483.87;26.10;;;;;8.10;94671.00;;;;8297061;28;20222;-85
2022/11/17 02:53:24;;;;;;;273.77;20.55;;;;;8.20;94662.00;;;;8299796;28;20218;-85
2022/11/17 02:57:58;;;;;;;287.20;19.67;;;;;8.20;94663.00;;;;8298530;28;20230;-85
2022/11/17 03:02:42;;;;;;;366.63;22.63;;;;;8.20;94654.00;;;;8300001;28;20226;-85
2022/11/17 03:06:53;;;;;;;509.60;25.30;;;;;8.20;94647.00;;;;8279506;28;20218;-86
2022/11/17 03:11:01;;;;;;;539.77;23.73;;;;;8.20;94650.00;;;;8298759;28;20675;-85
2022/11/17 03:15:13;;;;;;;393.37;20.50;;;;;8.20;94644.00;;;;8298981;28;20563;-85
2022/11/17 03:19:44;;;;;;;486.33;22.83;;;;;8.10;94644.00;;;;8299906;28;20218;-83
2022/11/17 03:23:53;;;;;;;403.17;20.17;;;;;8.10;94633.00;;;;8298051;28;20218;-83
2022/11/17 03:28:27;;;;;;;511.57;24.47;;;;;8.10;94633.00;;;;8298382;28;20225;-83
2022/11/17 03:32:33;;;;;;;595.27;27.00;;;;;8.10;94626.00;;;;8297170;28;20218;-82
2022/11/17 03:37:06;;;;;;;389.83;20.23;;;;;8.00;94625.00;;;;8298942;28;20230;-78
2022/11/17 03:41:22;;;;;;;440.87;23.37;;;;;7.90;94631.00;;;;8298364;28;20280;-80
2022/11/17 03:45:28;;;;;;;468.33;22.70;;;;;8.00;94623.00;;;;8298953;28;20218;-78
2022/11/17 03:50:07;;;;;;;436.30;22.10;;;;;8.00;94608.00;;;;8297918;28;20264;-80
2022/11/17 03:54:11;;;;;;;400.00;22.47;;;;;8.00;94597.00;;;;8296711;28;20288;-78
2022/11/17 03:58:54;;;;;;;407.97;21.97;;;;;8.00;94599.00;;;;8298590;28;20217;-78
2022/11/17 04:03:24;;;;;;;537.70;24.17;;;;;8.00;94590.00;;;;8297107;28;20226;-79
2022/11/17 04:07:27;;;;;;;484.87;22.20;;;;;8.00;94591.00;;;;8297260;28;20236;-79
2022/11/17 04:16:26;;;;;;;726.83;50.53;;;;;8.00;94580.00;;;;8297307;28;20295;-78
2022/11/17 04:21:01;;;;;;;643.93;39.70;;;;;8.00;94583.00;;;;8296644;28;20225;-79
2022/11/17 04:25:04;;;;;;;297.63;16.03;;;;;8.00;94577.00;;;;8296710;28;20300;-78
2022/11/17 04:29:38;;;;;;;517.67;24.33;;;;;8.00;94583.00;;;;8296646;28;20282;-79
2022/11/17 04:33:44;;;;;;;358.03;17.83;;;;;8.00;94575.00;;;;8296340;28;20217;-79
2022/11/17 04:38:18;;;;;;;450.77;21.60;;;;;8.00;94579.00;;;;8296312;28;20560;-78
2022/11/17 04:42:21;;;;;;;329.57;17.10;;;;;8.00;94566.00;;;;8296937;28;20236;-78
2022/11/17 04:46:26;;;;;;;300.53;16.93;;;;;7.90;94558.00;;;;8295668;28;20524;-78
2022/11/17 04:50:30;;;;;;;259.33;15.97;;;;;7.90;94557.00;;;;8296546;28;20738;-78
2022/11/17 04:54:33;;;;;;;396.37;19.77;;;;;7.90;94541.00;;;;8296194;28;20229;-77
2022/11/17 04:58:37;;;;;;;458.43;20.17;;;;;7.90;94523.00;;;;8295619;28;20560;-77
2022/11/17 05:03:13;;;;;;;473.87;21.60;;;;;7.90;94519.00;;;;8296411;28;20611;-77
2022/11/17 05:07:18;;;;;;;437.03;20.63;;;;;7.90;94517.00;;;;8295974;28;20248;-76
2022/11/17 05:20:02;;;;;;;264.57;16.33;;;;;7.90;94516.00;;;;8295961;28;20214;-77
2022/11/17 05:24:39;;;;;;;213.93;16.30;;;;;7.80;94492.00;;;;8294631;28;20225;-76
2022/11/17 05:28:43;;;;;;;371.10;20.93;;;;;7.90;94511.00;;;;8295510;28;20674;-76
2022/11/17 05:33:17;;;;;;;441.57;22.60;;;;;7.90;94539.00;;;;8295214;28;20249;-76
2022/11/17 05:37:20;;;;;;;380.43;20.27;;;;;7.90;94540.00;;;;8294228;28;20213;-77
2022/11/17 05:41:24;;;;;;;332.93;19.70;;;;;7.90;94536.00;;;;8295493;28;20734;-77
2022/11/17 05:45:28;;;;;;;433.57;21.63;;;;;7.90;94555.00;;;;8294785;28;20753;-77
2022/11/17 05:50:02;;;;;;;405.57;18.67;;;;;7.90;94556.00;;;;8292562;28;20233;-77
2022/11/17 05:54:38;;;;;;;355.13;17.77;;;;;7.90;94559.00;;;;8295085;28;20260;-78
2022/11/17 05:59:19;;;;;;;209.03;14.90;;;;;7.90;94558.00;;;;8298354;28;20226;-78
2022/11/17 06:03:53;;;;;;;319.50;16.43;;;;;7.90;94569.00;;;;8299518;28;20540;-77
2022/11/17 06:08:28;;;;;;;295.77;17.57;;;;;7.90;94572.00;;;;8300040;28;20217;-77
2022/11/17 06:13:02;;;;;;;328.47;18.37;;;;;7.90;94577.00;;;;8300618;28;20225;-77
2022/11/17 06:17:41;;;;;;;290.87;17.17;;;;;7.90;94568.00;;;;8300731;28;20218;-77
2022/11/17 06:22:17;;;;;;;335.33;19.07;;;;;7.90;94567.00;;;;8300489;28;20227;-76
2022/11/17 06:26:51;;;;;;;295.27;17.70;;;;;7.90;94566.00;;;;8301377;28;20218;-76
2022/11/17 06:31:28;;;;;;;201.93;15.50;;;;;7.90;94577.00;;;;8300302;28;20226;-77
2022/11/17 06:36:06;;;;;;;332.07;19.30;;;;;7.90;94573.00;;;;8298974;28;20222;-78
2022/11/17 06:40:12;;;;;;;544.50;24.97;;;;;7.90;94588.00;;;;8300402;28;20222;-78
2022/11/17 06:44:46;;;;;;;288.93;19.93;;;;;7.90;94582.00;;;;8299244;28;20279;-78
2022/11/17 06:49:22;;;;;;;294.37;32.20;;;;;7.90;94581.00;;;;8299260;28;20221;-76
2022/11/17 06:53:59;;;;;;;342.80;25.73;;;;;7.90;94566.00;;;;8299603;28;20655;-76
2022/11/17 06:58:38;;;;;;;736.63;155.33;;;;;7.90;94572.00;;;;8297694;28;20214;-78
2022/11/17 07:03:12;;;;;;;445.40;45.47;;;;;7.90;94558.00;;;;8298716;28;20244;-78
2022/11/17 07:12:47;;;;;;;622.10;91.97;;;;;8.00;94553.00;;;;8298730;28;20221;-79
2022/11/17 07:16:51;;;;;;;1999.90;796.27;;;;;8.10;94563.00;;;;8298125;28;20676;-78
2022/11/17 07:20:55;;;;;;;1271.13;274.53;;;;;8.10;94567.00;;;;8297976;28;20222;-78
2022/11/17 07:25:29;;;;;;;220.63;36.47;;;;;8.20;94565.00;;;;8298711;28;20261;-79
2022/11/17 07:30:08;;;;;;;156.03;19.13;;;;;8.20;94548.00;;;;8297786;28;20256;-79
2022/11/17 07:34:44;;;;;;;114.10;14.77;;;;;8.20;94571.00;;;;8297319;28;20222;-77
2022/11/17 07:39:18;;;;;;;129.50;14.13;;;;;8.20;94590.00;;;;8297462;28;20222;-77
2022/11/17 07:43:54;;;;;;;300.63;182.73;;;;;8.20;94591.00;;;;8297589;28;20217;-76
2022/11/17 07:48:31;;;;;;;212.03;121.80;;;;;8.30;94599.00;;;;8297485;28;20248;-77
2022/11/17 07:53:10;;;;;;;94.80;24.00;;;;;8.20;94587.00;;;;8296569;28;20635;-77
2022/11/17 07:57:43;;;;;;;90.77;19.53;;;;;8.30;94578.00;;;;8297112;28;20253;-77
2022/11/17 08:02:20;;;;;;;72.97;11.40;;;;;8.30;94570.00;;;;8296839;28;20312;-78
2022/11/17 08:06:23;;;;;;;65.03;10.73;;;;;8.40;94574.00;;;;8295806;28;20662;-80
2022/11/17 08:11:04;;;;;;;66.80;11.00;;;;;8.40;94563.00;;;;8296674;28;20638;-79
2022/11/17 08:15:40;;;;;;;54.87;9.80;;;;;8.40;94572.00;;;;8295921;28;20529;-77
2022/11/17 08:20:18;;;;;;;67.67;10.63;;;;;8.40;94577.00;;;;8295390;28;20226;-82
2022/11/17 08:24:54;;;;;;;78.20;14.80;;;;;8.40;94588.00;;;;8295356;28;20230;-79
2022/11/17 08:29:00;;;;;;;62.90;11.43;;;;;8.50;94573.00;;;;8296598;28;20245;-79
2022/11/17 08:33:34;;;;;;;87.00;23.33;;;;;8.50;94575.00;;;;8295389;28;20230;-78
2022/11/17 08:38:14;;;;;;;81.07;13.87;;;;;8.50;94567.00;;;;8296143;28;20226;-78
2022/11/17 08:42:17;;;;;;;81.37;13.77;;;;;8.50;94561.00;;;;8296024;28;20222;-80
2022/11/17 08:46:52;;;;;;;72.80;13.52;;;;;8.60;94572.00;;;;8291665;28;20245;-78
2022/11/17 08:51:27;;;;;;;75.17;14.50;;;;;8.70;94572.00;;;;8296547;28;20226;-77
2022/11/17 08:56:01;;;;;;;84.83;14.63;;;;;8.70;94569.00;;;;8292108;28;20214;-80
2022/11/17 09:00:38;;;;;;;83.27;14.17;;;;;8.80;94574.00;;;;8294800;28;20258;-81
2022/11/17 09:05:17;;;;;;;81.30;14.40;;;;;8.90;94588.00;;;;8295018;28;20698;-79
2022/11/17 09:09:20;;;;;;;77.37;14.33;;;;;9.00;94580.00;;;;8294790;28;20225;-86
2022/11/17 09:13:54;;;;;;;92.05;14.95;;;;;9.20;94580.00;;;;8295000;28;20264;-87
2022/11/17 09:17:57;;;;;;;77.03;14.23;;;;;9.30;94578.00;;;;8295811;28;20558;-87
2022/11/17 09:22:36;;;;;;;82.70;14.60;;;;;9.30;94575.00;;;;8295040;28;20612;-87
2022/11/17 09:26:39;;;;;;;85.10;17.17;;;;;9.40;94571.00;;;;8295361;28;20276;-87
2022/11/17 09:31:13;;;;;;;75.77;16.67;;;;;9.40;94557.00;;;;8295389;28;20725;-86
2022/11/17 09:35:16;;;;;;;84.00;17.73;;;;;9.40;94553.00;;;;8295662;28;20551;-86
2022/11/17 09:39:21;;;;;;;83.03;18.27;;;;;9.50;94554.00;;;;8295136;28;20217;-86
2022/11/17 09:43:28;;;;;;;87.25;18.35;;;;;9.60;94540.00;;;;8296213;28;21169;-86
2022/11/17 09:47:39;;;;;;;79.32;18.15;;;;;9.90;94554.00;;;;8294966;28;20229;-85
2022/11/17 09:52:10;;;;;;;65.85;14.63;;;;;10.00;94578.00;;;;8282357;28;20226;-84
2022/11/17 09:56:44;;;;;;;60.67;16.25;;;;;10.10;94577.00;;;;8294348;28;20304;-83
2022/11/17 10:01:05;;;;;;;62.13;16.48;;;;;10.30;94561.00;;;;8294449;28;20228;-83
2022/11/17 10:05:42;;;;;;;60.22;16.92;;;;;10.40;94568.00;;;;8295067;28;20602;-82
2022/11/17 10:10:19;;;;;;;62.78;15.23;;;;;10.40;94564.00;;;;8294757;28;20221;-82
2022/11/17 10:14:58;;;;;;;52.97;15.30;;;;;10.50;94564.00;;;;8293148;28;20640;-83
2022/11/17 10:19:06;;;;;;;47.80;13.57;;;;;10.50;94565.00;;;;8294746;28;20625;-81
2022/11/17 10:23:13;;;;;;;43.22;13.35;;;;;10.40;94584.00;;;;8293896;28;20279;-81
2022/11/17 10:27:44;;;;;;;57.17;15.45;;;;;10.30;94602.00;;;;8294599;28;20651;-81
2022/11/17 10:31:48;;;;;;;57.33;15.63;;;;;10.20;94600.00;;;;8294801;28;20305;-82
2022/11/17 10:36:25;;;;;;;61.55;16.25;;;;;10.10;94574.00;;;;8293924;28;20241;-84
2022/11/17 10:41:01;;;;;;;68.72;17.00;;;;;10.10;94574.00;;;;8294106;28;20297;-84
2022/11/17 10:45:35;;;;;;;73.38;18.23;;;;;10.10;94558.00;;;;8297614;28;20271;-85
2022/11/17 10:50:18;;;;;;;65.78;17.35;;;;;10.20;94559.00;;;;8299442;28;20292;-83
2022/11/17 10:54:49;;;;;;;57.03;15.15;;;;;10.20;94542.00;;;;8300062;28;20218;-84
2022/11/17 10:59:28;;;;;;;58.35;15.25;;;;;10.20;94549.00;;;;8300324;28;20533;-84
2022/11/17 11:03:33;;;;;;;57.58;14.57;;;;;10.20;94554.00;;;;8297662;28;20257;-79
2022/11/17 11:07:40;;;;;;;50.75;14.73;;;;;10.20;94548.00;;;;8299797;28;20226;-79
2022/11/17 11:11:45;;;;;;;53.30;15.13;;;;;10.30;94543.00;;;;8299430;28;20277;-78
2022/11/17 11:15:48;;;;;;;51.90;13.82;;;;;10.40;94548.00;;;;8299332;28;20221;-77
2022/11/17 11:20:26;;;;;;;51.42;14.40;;;;;10.40;94546.00;;;;8299358;28;20691;-80
2022/11/17 11:25:03;;;;;;;49.00;17.98;;;;;10.50;94561.00;;;;8298461;28;20551;-78
2022/11/17 11:29:17;;;;;;;42.20;13.07;;;;;10.60;94544.00;;;;8298505;28;20221;-78
2022/11/17 11:33:32;;;;;;;41.83;14.95;;;;;10.70;94532.00;;;;8299030;28;20219;-80
2022/11/17 11:38:00;;;;;;;37.75;13.43;;;;;10.80;94530.00;;;;8297220;28;20305;-80
2022/11/17 11:42:23;;;;;;;32.20;10.65;;;;;10.90;94528.00;;;;8299088;28;20223;-81
2022/11/17 11:47:07;;;;;;;33.35;14.00;;;;;11.10;94525.00;;;;8297920;28;20693;-81
2022/11/17 11:51:15;;;;;;;33.40;14.48;;;;;11.20;94517.00;;;;8298194;28;20217;-80
2022/11/17 11:55:22;;;;;;;22.27;10.07;;;;;11.30;94523.00;;;;8297402;28;20529;-82
2022/11/17 11:59:37;;;;;;;20.95;10.25;;;;;11.40;94529.00;;;;8297648;28;20275;-83
2022/11/17 12:04:11;;;;;;;18.15;8.10;;;;;11.50;94524.00;;;;8297338;28;20285;-79
2022/11/17 12:08:42;;;;;;;18.38;8.73;;;;;11.50;94517.00;;;;8297901;28;20225;-80
2022/11/17 12:12:47;;;;;;;20.25;8.35;;;;;11.60;94517.00;;;;8296935;28;20312;-81
2022/11/17 12:17:25;;;;;;;21.98;8.70;;;;;11.50;94514.00;;;;8297825;28;20236;-79
2022/11/17 12:21:56;;;;;;;17.25;8.02;;;;;11.40;94518.00;;;;8296704;28;20568;-79
2022/11/17 12:26:30;;;;;;;18.77;7.63;;;;;11.50;94512.00;;;;8296977;28;20299;-80
2022/11/17 12:31:09;;;;;;;16.33;7.53;;;;;11.50;94506.00;;;;8297216;28;20221;-80
2022/11/17 12:35:45;;;;;;;18.13;8.80;;;;;11.60;94509.00;;;;8295560;28;20228;-79
2022/11/17 12:40:33;;;;;;;12.98;6.25;;;;;11.80;94518.00;;;;8296014;28;20312;-79
2022/11/17 12:44:56;;;;;;;14.77;6.18;;;;;11.90;94514.00;;;;8295699;28;20600;-81
2022/11/17 12:49:34;;;;;;;12.15;5.85;;;;;12.10;94510.00;;;;8295826;28;20293;-80
2022/11/17 12:53:51;;;;;;;11.02;5.50;;;;;12.30;94523.00;;;;8295442;28;20283;-77
2022/11/17 12:58:03;;;;;;;7.60;4.70;;;;;12.30;94526.00;;;;8296135;28;20666;-81
2022/11/17 13:02:47;;;;;;;8.02;4.80;;;;;12.30;94517.00;;;;8296205;28;20255;-81
2022/11/17 13:07:08;;;;;;;4.75;3.70;;;;;12.20;94521.00;;;;8295381;28;20297;-81
2022/11/17 13:11:48;;;;;;;3.58;3.05;;;;;12.20;94512.00;;;;8295079;28;20318;-80
2022/11/17 13:16:27;;;;;;;7.20;3.08;;;;;12.20;94510.00;;;;8294721;28;20228;-80
2022/11/17 13:20:30;;;;;;;4.25;2.88;;;;;12.20;94510.00;;;;8295807;28;20243;-80
2022/11/17 13:25:04;;;;;;;6.60;2.70;;;;;12.20;94512.00;;;;8294645;28;20225;-78
2022/11/17 13:29:10;;;;;;;6.07;2.80;;;;;12.10;94513.00;;;;8294297;28;20220;-79
2022/11/17 13:33:21;;;;;;;3.97;2.42;;;;;12.30;94524.00;;;;8294796;28;20267;-79
2022/11/17 13:38:04;;;;;;;6.25;2.90;;;;;12.40;94526.00;;;;8294949;28;20218;-79
2022/11/17 13:42:29;;;;;;;5.28;2.55;;;;;12.40;94530.00;;;;8287136;28;20217;-76
2022/11/17 13:46:44;;;;;;;3.28;2.80;;;;;12.50;94532.00;;;;8295639;28;20688;-75
2022/11/17 13:51:26;;;;;;;4.60;2.97;;;;;12.50;94536.00;;;;8292698;28;20252;-78
2022/11/17 13:55:57;;;;;;;3.45;3.13;;;;;12.50;94533.00;;;;8294622;28;20600;-78
2022/11/17 14:00:01;;;;;;;8.68;3.53;;;;;12.40;94540.00;;;;8295061;28;20654;-78
2022/11/17 14:04:35;;;;;;;5.10;3.08;;;;;12.40;94548.00;;;;8294760;28;20237;-78
2022/11/17 14:09:18;;;;;;;7.35;3.30;;;;;12.40;94544.00;;;;8293997;28;20224;-78
2022/11/17 14:13:50;;;;;;;4.60;2.88;;;;;12.30;94544.00;;;;8294062;28;20220;-79
2022/11/17 14:17:55;;;;;;;5.47;3.25;;;;;12.20;94551.00;;;;8294904;28;20562;-78
2022/11/17 14:21:59;;;;;;;4.38;3.20;;;;;12.20;94548.00;;;;8299341;28;20253;-78
2022/11/17 14:26:40;;;;;;;4.50;3.30;;;;;12.20;94536.00;;;;8300565;28;20226;-78
2022/11/17 14:31:11;;;;;;;4.25;2.80;;;;;12.00;94545.00;;;;8299761;28;20221;-77
2022/11/17 14:35:17;;;;;;;6.70;3.47;;;;;12.00;94549.00;;;;8304725;28;20718;-78
2022/11/17 14:39:53;;;;;;;3.30;2.63;;;;;11.90;94542.00;;;;8303558;28;20609;-78
2022/11/17 14:43:57;;;;;;;6.07;3.42;;;;;11.80;94544.00;;;;8299883;28;20226;-79
2022/11/17 14:48:31;;;;;;;4.30;2.88;;;;;11.80;94549.00;;;;8299683;28;20616;-79
2022/11/17 14:52:35;;;;;;;5.68;2.80;;;;;11.90;94543.00;;;;8299465;28;20311;-78
2022/11/17 14:57:11;;;;;;;2.92;2.40;;;;;11.90;94548.00;;;;8293834;28;20237;-78
2022/11/17 15:01:49;;;;;;;2.85;2.58;;;;;11.80;94559.00;;;;8299466;28;20304;-78
2022/11/17 15:05:52;;;;;;;7.93;2.70;;;;;11.60;94557.00;;;;8297997;28;20229;-79
2022/11/17 15:10:29;;;;;;;34.00;19.58;;;;;11.40;94569.00;;;;8299328;28;20221;-79
2022/11/17 15:15:06;;;;;;;13.57;9.50;;;;;11.20;94562.00;;;;8298834;28;20236;-79
2022/11/17 15:19:45;;;;;;;9.63;4.68;;;;;11.10;94564.00;;;;8298579;28;20245;-79
2022/11/17 15:24:18;;;;;;;7.10;3.72;;;;;11.20;94573.00;;;;8296181;28;20228;-79
2022/11/17 15:28:22;;;;;;;4.65;2.72;;;;;11.20;94568.00;;;;8298316;28;20241;-79
2022/11/17 15:33:02;;;;;;;8.43;3.80;;;;;11.20;94579.00;;;;8289131;28;20232;-79
2022/11/17 15:37:40;;;;;;;6.95;3.53;;;;;11.10;94576.00;;;;8297723;28;20241;-79
2022/11/17 15:41:43;;;;;;;7.47;3.20;;;;;11.00;94576.00;;;;8292505;28;20626;-80
2022/11/17 15:45:46;;;;;;;7.43;4.82;;;;;10.90;94562.00;;;;8297950;28;20290;-80
2022/11/17 15:49:57;;;;;;;8.30;3.58;;;;;10.70;94570.00;;;;8297017;28;20675;-80
2022/11/17 15:54:02;;;;;;;16.95;8.30;;;;;10.50;94560.00;;;;8298850;28;20242;-81
2022/11/17 15:58:05;;;;;;;15.93;7.13;;;;;10.40;94560.00;;;;8297321;28;20221;-81
2022/11/17 16:02:41;;;;;;;16.80;8.25;;;;;10.20;94568.00;;;;8297278;28;20738;-83
2022/11/17 16:06:46;;;;;;;20.77;9.23;;;;;10.10;94571.00;;;;8293363;28;20225;-81
2022/11/17 16:10:50;;;;;;;111.22;12.95;;;;;10.10;94558.00;;;;8297216;28;20537;-81
2022/11/17 16:15:09;;;;;;;50.35;14.05;;;;;10.10;94563.00;;;;8296417;28;20230;-81
2022/11/17 16:19:12;;;;;;;33.08;11.65;;;;;10.10;94546.00;;;;8296993;28;20224;-82
2022/11/17 16:23:16;;;;;;;55.28;14.13;;;;;10.10;94555.00;;;;8295931;28;20360;-80
2022/11/17 16:27:52;;;;;;;25.02;11.18;;;;;10.00;94551.00;;;;8296453;28;20225;-81
2022/11/17 16:31:57;;;;;;;33.50;13.32;;;;;10.00;94554.00;;;;8296413;28;20595;-80
2022/11/17 16:36:04;;;;;;;29.92;11.60;;;;;10.00;94564.00;;;;8294793;28;20225;-81
2022/11/17 16:40:38;;;;;;;23.70;11.63;;;;;10.00;94554.00;;;;8287481;28;20312;-80
2022/11/17 16:44:41;;;;;;;23.67;10.43;;;;;10.10;94554.00;;;;8295683;28;21802;-81
2022/11/17 16:48:47;;;;;;;27.08;11.38;;;;;10.00;94545.00;;;;8295821;28;20226;-80
2022/11/17 16:52:50;;;;;;;41.05;14.00;;;;;9.90;94552.00;;;;8295918;28;20300;-80
2022/11/17 16:57:27;;;;;;;67.13;17.02;;;;;9.80;94547.00;;;;8295790;28;20263;-81
2022/11/17 17:01:31;;;;;;;101.78;23.95;;;;;9.70;94554.00;;;;8291803;28;20241;-80
2022/11/17 17:06:08;;;;;;;91.95;16.83;;;;;9.60;94547.00;;;;8295898;28;20265;-80
2022/11/17 17:10:11;;;;;;;251.07;31.55;;;;;9.60;94548.00;;;;8295328;28;20214;-80
2022/11/17 17:14:15;;;;;;;369.98;132.27;;;;;9.60;94536.00;;;;8295600;28;20278;-81
2022/11/17 17:18:18;;;;;;;289.13;96.72;;;;;9.60;94542.00;;;;8294757;28;20248;-81
2022/11/17 17:22:57;;;;;;;326.83;77.07;;;;;9.60;94555.00;;;;8295751;28;20679;-80
2022/11/17 17:27:05;;;;;;;416.83;150.30;;;;;9.60;94550.00;;;;8294252;28;20229;-80
2022/11/17 17:31:09;;;;;;;968.50;299.65;;;;;9.70;94557.00;;;;8294177;28;20235;-79
2022/11/17 17:35:12;;;;;;;1999.90;999.90;;;;;9.70;94548.00;;;;8295477;28;20726;-80
2022/11/17 17:39:17;;;;;;;1999.90;741.67;;;;;9.70;94553.00;;;;8294357;28;20268;-80
2022/11/17 17:43:20;;;;;;;993.38;212.55;;;;;9.70;94554.00;;;;8295237;28;20221;-80
2022/11/17 17:47:23;;;;;;;911.58;280.27;;;;;9.80;94556.00;;;;8294138;28;20227;-80
2022/11/17 17:51:54;;;;;;;644.97;87.93;;;;;9.70;94557.00;;;;8295202;28;20315;-79
2022/11/17 17:56:03;;;;;;;524.60;149.52;;;;;9.70;94556.00;;;;8305335;28;20226;-80
2022/11/17 18:00:07;;;;;;;555.47;209.82;;;;;9.70;94537.00;;;;8305485;28;20256;-80
2022/11/17 18:04:10;;;;;;;1999.90;769.03;;;;;9.70;94537.00;;;;8304990;28;20233;-80
2022/11/17 18:08:18;;;;;;;496.98;73.97;;;;;9.80;94536.00;;;;8305336;28;20537;-80
2022/11/17 18:12:22;;;;;;;448.00;107.63;;;;;9.80;94533.00;;;;8305839;28;20229;-80
2022/11/17 18:16:27;;;;;;;441.10;34.72;;;;;9.90;94556.00;;;;8304829;28;20544;-80
2022/11/17 18:20:30;;;;;;;437.73;28.00;;;;;9.90;94547.00;;;;8304948;28;20218;-80
2022/11/17 18:24:34;;;;;;;306.15;31.58;;;;;9.80;94549.00;;;;8304661;28;20227;-80
2022/11/17 18:29:14;;;;;;;363.45;29.35;;;;;9.80;94544.00;;;;8305040;28;20224;-80
2022/11/17 18:33:18;;;;;;;245.00;24.20;;;;;9.70;94551.00;;;;8304756;28;20230;-80
2022/11/17 18:37:21;;;;;;;514.97;32.80;;;;;9.70;94553.00;;;;8305742;28;20239;-79
2022/11/17 18:41:25;;;;;;;405.38;26.88;;;;;9.70;94563.00;;;;8305073;28;20301;-80
2022/11/17 18:45:30;;;;;;;289.90;20.77;;;;;9.70;94551.00;;;;8303705;28;20235;-79
2022/11/17 18:49:33;;;;;;;499.88;27.95;;;;;9.60;94532.00;;;;8305123;28;20229;-78
2022/11/17 18:54:07;;;;;;;410.77;25.35;;;;;9.60;94539.00;;;;8304516;28;20226;-78
2022/11/17 18:58:10;;;;;;;457.17;27.88;;;;;9.50;94543.00;;;;8304712;28;20279;-78
2022/11/17 19:02:15;;;;;;;362.73;21.10;;;;;9.40;94544.00;;;;8304060;28;20666;-78
2022/11/17 19:06:49;;;;;;;547.83;30.73;;;;;9.30;94546.00;;;;8299298;28;20226;-78
2022/11/17 19:10:52;;;;;;;433.10;26.10;;;;;9.40;94552.00;;;;8299530;28;20212;-78
2022/11/17 19:15:11;;;;;;;196.80;18.20;;;;;9.40;94547.00;;;;8297275;28;20222;-78
2022/11/17 19:19:29;;;;;;;486.92;32.03;;;;;9.40;94557.00;;;;8292748;28;20214;-78
2022/11/17 19:24:06;;;;;;;91.55;14.52;;;;;9.40;94553.00;;;;8296441;28;20705;-76
2022/11/17 19:28:12;;;;;;;440.52;30.40;;;;;9.50;94554.00;;;;8298442;28;20297;-76
2022/11/17 19:32:46;;;;;;;619.38;91.53;;;;;9.50;94546.00;;;;8299139;28;20559;-76
2022/11/17 19:37:25;;;;;;;163.65;39.05;;;;;9.50;94550.00;;;;8298096;28;20226;-76
2022/11/17 19:42:02;;;;;;;195.70;18.30;;;;;9.60;94556.00;;;;8297308;28;20307;-75
2022/11/17 19:46:38;;;;;;;151.20;18.85;;;;;9.60;94557.00;;;;8297996;28;20620;-80
2022/11/17 19:51:17;;;;;;;492.90;27.52;;;;;9.60;94546.00;;;;8297162;28;20319;-79
2022/11/17 19:55:21;;;;;;;313.45;21.35;;;;;9.60;94550.00;;;;8297734;28;20296;-78
2022/11/17 19:59:55;;;;;;;513.75;29.05;;;;;9.50;94555.00;;;;8297479;28;20253;-79
2022/11/17 20:04:32;;;;;;;267.13;20.42;;;;;9.50;94559.00;;;;8297116;28;20229;-79
2022/11/17 20:09:10;;;;;;;487.55;33.08;;;;;9.40;94549.00;;;;8296687;28;20222;-79
2022/11/17 20:13:14;;;;;;;531.13;35.13;;;;;9.40;94542.00;;;;8282777;28;20613;-79
2022/11/17 20:17:48;;;;;;;427.92;61.05;;;;;9.20;94554.00;;;;8293838;28;20551;-80
2022/11/17 20:22:25;;;;;;;529.17;42.63;;;;;9.20;94551.00;;;;8288903;28;20226;-80
2022/11/17 20:27:02;;;;;;;449.35;35.38;;;;;9.20;94553.00;;;;8296294;28;20563;-80
2022/11/17 20:31:08;;;;;;;278.38;24.88;;;;;9.20;94556.00;;;;8296281;28;20268;-79
2022/11/17 20:35:11;;;;;;;460.80;33.47;;;;;9.30;94562.00;;;;8289473;28;20226;-78
2022/11/17 20:39:15;;;;;;;325.92;28.77;;;;;9.30;94549.00;;;;8295276;28;20222;-79
2022/11/17 20:43:50;;;;;;;521.15;31.08;;;;;9.30;94565.00;;;;8296991;28;20221;-80
2022/11/17 20:47:54;;;;;;;288.42;25.00;;;;;9.30;94555.00;;;;8295505;28;20296;-80
2022/11/17 20:52:27;;;;;;;371.35;33.03;;;;;9.30;94547.00;;;;8295605;28;20273;-79
2022/11/17 20:57:04;;;;;;;398.40;27.98;;;;;9.30;94543.00;;;;8294784;28;20238;-77
2022/11/17 21:01:09;;;;;;;610.55;36.92;;;;;9.30;94547.00;;;;8294867;28;20668;-82
2022/11/17 21:05:14;;;;;;;385.42;28.95;;;;;9.30;94556.00;;;;8295753;28;20268;-81
2022/11/17 21:09:17;;;;;;;474.80;34.17;;;;;9.40;94558.00;;;;8295549;28;20227;-82
2022/11/17 21:18:52;;;;;;;150.00;22.25;;;;;9.30;94557.00;;;;8295034;28;20226;-80
2022/11/17 21:22:56;;;;;;;210.02;24.40;;;;;9.20;94556.00;;;;8295424;28;20281;-85
2022/11/17 21:27:30;;;;;;;164.80;23.20;;;;;9.20;94559.00;;;;8294457;28;20228;-82
2022/11/17 21:31:33;;;;;;;186.07;22.67;;;;;9.10;94573.00;;;;8294818;28;20711;-79
2022/11/17 21:35:37;;;;;;;158.35;21.52;;;;;9.10;94575.00;;;;8294195;28;20300;-82
2022/11/17 21:39:41;;;;;;;217.82;24.75;;;;;9.10;94584.00;;;;8294728;28;20280;-79
2022/11/17 21:43:46;;;;;;;222.60;26.73;;;;;9.10;94569.00;;;;8294205;28;20221;-80
2022/11/17 21:47:49;;;;;;;112.93;21.88;;;;;9.10;94586.00;;;;8294806;28;20222;-80